Terminal Aerodrome Forecast
Issued by NWS Cleveland, OH

Home | Current Version | Previous Version | Text Only | Print | Product List | Glossary On
Versions: 1 2 3 4 5 6 7 8 9 10 11 12
000
FTUS41 KCLE 221120
TAFMFD
TAF
KMFD 221120Z 2212/2312 16007KT P6SM SKC
     FM221600 18012G18KT P6SM SCT250
     FM222300 16008KT P6SM SCT120 BKN200
     FM230900 17012KT P6SM SCT040 OVC100=

USA.gov is the U.S. government's official web portal to all federal, state and local government web resources and services.